| time (UTC) | temp C | wind direction | speed KPH | gust KPH | rain 1hr cm | rain 24hr cm | rain mn cm | humidity % | barometer mb |
| 20260506124529 | -17 | 0.0 | 0.0 | 0.00 | 0.00 | 0.00 | 1020.0 | ||
| 20260506123028 | -17 | 0.0 | 0.0 | 0.00 | 0.00 | 0.00 | 1019.8 | ||
| 20260506121531 | -17 | 0.0 | 0.0 | 0.00 | 0.00 | 0.00 | 1019.8 | ||
| 20260506120033 | 12 | 0 | 0.0 | 0.0 | 0.00 | 0.00 | 0.00 | 86 | 1019.8 |
| 20260506114533 | 12 | 0 | 0.0 | 0.0 | 0.00 | 0.00 | 0.00 | 86 | 1019.7 |
| 20260506113030 | 12 | 0 | 0.0 | 0.0 | 0.00 | 0.00 | 0.00 | 86 | 1019.7 |
| 20260506111527 | 12 | 0 | 0.0 | 0.0 | 0.00 | 0.00 | 0.00 | 85 | 1019.5 |
| 20260506110033 | 12 | 0 | 0.0 | 0.0 | 0.00 | 0.00 | 0.00 | 85 | 1019.3 |
| 20260506104530 | 12 | 0 | 0.0 | 0.0 | 0.00 | 0.05 | 0.00 | 85 | 1019.2 |
| 20260506103035 | 12 | 0 | 0.0 | 0.0 | 0.00 | 0.05 | 0.00 | 85 | 1019.2 |
| 20260506101543 | 12 | 0 | 0.0 | 0.0 | 0.00 | 0.05 | 0.00 | 86 | 1019.0 |
| 20260506100037 | 12 | 0 | 0.0 | 0.0 | 0.00 | 0.05 | 0.00 | 86 | 1018.8 |
| 20260506094530 | 12 | 0 | 0.0 | 0.0 | 0.00 | 0.15 | 0.00 | 85 | 1018.8 |
| 20260506093038 | 12 | 0 | 0.0 | 0.0 | 0.00 | 0.15 | 0.00 | 86 | 1018.7 |
| 20260506091529 | 12 | 0 | 0.0 | 0.0 | 0.00 | 0.15 | 0.00 | 86 | 1018.8 |
| 20260506090027 | 12 | 0 | 0.0 | 0.0 | 0.00 | 0.15 | 0.00 | 87 | 1018.9 |
| 20260506084528 | 11 | 0 | 0.0 | 0.0 | 0.00 | 0.20 | 0.00 | 86 | 1018.9 |
| 20260506083033 | 11 | 0 | 0.0 | 0.0 | 0.00 | 0.20 | 0.00 | 86 | 1019.0 |
| 20260506081536 | 11 | 0 | 0.0 | 0.0 | 0.00 | 0.20 | 0.00 | 85 | 1018.9 |
| 20260506073039 | 12 | 0 | 0.0 | 0.0 | 0.00 | 0.20 | 0.00 | 83 | 1018.5 |
| 20260506071532 | 12 | 0 | 0.0 | 0.0 | 0.00 | 0.20 | 0.00 | 84 | 1018.5 |
| 20260506061528 | 12 | 0 | 0.0 | 0.0 | 0.00 | 0.20 | 0.20 | 82 | 1018.0 |
| 20260506044601 | 14 | 0 | 0.0 | 0.0 | 0.00 | 0.20 | 0.20 | 77 | 1017.3 |
| 20260506043028 | 15 | 0 | 0.0 | 1.6 | 0.00 | 0.20 | 0.20 | 77 | 1017.1 |
| 20260506041529 | 15 | 0 | 0.0 | 3.2 | 0.00 | 0.20 | 0.20 | 77 | 1016.9 |
| 20260506040030 | 15 | 0 | 0.0 | 3.2 | 0.00 | 0.20 | 0.20 | 76 | 1016.7 |
| 20260506034551 | 15 | 91 | 3.2 | 4.8 | 0.00 | 0.20 | 0.20 | 75 | 1016.6 |
| 20260506033032 | 16 | 91 | 3.2 | 9.7 | 0.00 | 0.20 | 0.20 | 74 | 1016.4 |
| 20260506031530 | 16 | 91 | 6.4 | 12.9 | 0.00 | 0.20 | 0.20 | 74 | 1016.2 |
| 20260506030030 | 16 | 91 | 4.8 | 11.3 | 0.00 | 0.20 | 0.20 | 74 | 1016.1 |
| 20260506024529 | 16 | 91 | 3.2 | 11.3 | 0.00 | 0.20 | 0.20 | 74 | 1016.0 |
| 20260506023033 | 16 | 91 | 4.8 | 14.5 | 0.00 | 0.20 | 0.20 | 73 | 1015.9 |
| 20260506021533 | 16 | 91 | 4.8 | 12.9 | 0.00 | 0.20 | 0.20 | 72 | 1015.8 |
| 20260506020028 | 17 | 91 | 4.8 | 9.7 | 0.00 | 0.20 | 0.20 | 73 | 1015.7 |
| 20260506014530 | 17 | 91 | 4.8 | 11.3 | 0.00 | 0.20 | 0.20 | 72 | 1015.6 |
| 20260506013029 | 17 | 91 | 3.2 | 9.7 | 0.00 | 0.20 | 0.20 | 72 | 1015.7 |
| 20260506011532 | 17 | 91 | 4.8 | 11.3 | 0.00 | 0.20 | 0.20 | 72 | 1015.6 |
| 20260506010030 | 17 | 91 | 3.2 | 9.7 | 0.00 | 0.20 | 0.20 | 73 | 1015.7 |
| 20260506004536 | 17 | 91 | 3.2 | 11.3 | 0.00 | 0.20 | 0.20 | 73 | 1015.6 |
| 20260506003038 | 17 | 91 | 3.2 | 9.7 | 0.00 | 0.20 | 0.20 | 71 | 1015.6 |
| 20260506001530 | 17 | 0 | 0.0 | 9.7 | 0.00 | 0.20 | 0.20 | 71 | 1015.5 |
| 20260506000030 | 17 | 91 | 0.0 | 1.6 | 0.00 | 0.20 | 0.20 | 71 | 1015.4 |
| 20260505234549 | 17 | 0 | 0.0 | 3.2 | 0.00 | 0.20 | 0.20 | 72 | 1015.5 |
| 20260505233031 | 17 | 91 | 1.6 | 6.4 | 0.00 | 0.20 | 0.20 | 73 | 1015.5 |
| 20260505231533 | 17 | 91 | 1.6 | 9.7 | 0.00 | 0.20 | 0.20 | 73 | 1015.5 |
| 20260505230038 | 17 | 91 | 1.6 | 9.7 | 0.00 | 0.20 | 0.20 | 73 | 1015.5 |
| 20260505224529 | 16 | 91 | 6.4 | 12.9 | 0.00 | 0.20 | 0.20 | 73 | 1015.5 |
| 20260505223030 | 17 | 91 | 4.8 | 11.3 | 0.00 | 0.20 | 0.20 | 73 | 1015.6 |
| 20260505221530 | 17 | 91 | 4.8 | 11.3 | 0.00 | 0.20 | 0.20 | 72 | 1015.6 |
| 20260505220043 | 17 | 91 | 0.0 | 9.7 | 0.00 | 0.20 | 0.20 | 72 | 1015.7 |
| 20260505214536 | 17 | 91 | 0.0 | 6.4 | 0.00 | 0.20 | 0.20 | 74 | 1015.7 |
| 20260505213030 | 17 | 91 | 3.2 | 9.7 | 0.00 | 0.20 | 0.20 | 75 | 1015.9 |
| 20260505211530 | 16 | 91 | 0.0 | 4.8 | 0.00 | 0.20 | 0.20 | 74 | 1015.9 |
| 20260505210030 | 17 | 0 | 0.0 | 0.0 | 0.00 | 0.20 | 0.20 | 74 | 1016.0 |
| 20260505204530 | 16 | 0 | 0.0 | 1.6 | 0.00 | 0.20 | 0.20 | 74 | 1016.1 |
| 20260505203029 | 16 | 0 | 1.6 | 6.4 | 0.00 | 0.20 | 0.20 | 74 | 1016.1 |
| 20260505201528 | 17 | 0 | 0.0 | 1.6 | 0.00 | 0.20 | 0.20 | 72 | 1016.2 |
| 20260505200029 | 16 | 0 | 0.0 | 6.4 | 0.00 | 0.20 | 0.20 | 73 | 1016.2 |
| 20260505194536 | 16 | 0 | 0.0 | 9.7 | 0.00 | 0.20 | 0.20 | 75 | 1016.2 |
| 20260505193039 | 16 | 91 | 1.6 | 12.9 | 0.00 | 0.20 | 0.20 | 75 | 1016.4 |
| 20260505191544 | 16 | 91 | 1.6 | 14.5 | 0.00 | 0.20 | 0.20 | 76 | 1016.2 |
| 20260505190032 | 16 | 0 | 1.6 | 11.3 | 0.00 | 0.20 | 0.20 | 76 | 1016.1 |
| 20260505184528 | -17 | 0.0 | 0.0 | 0.00 | 0.20 | 0.20 | 1016.1 | ||
| 20260505183030 | -17 | 0.0 | 0.0 | 0.00 | 0.20 | 0.20 | 1016.2 | ||
| 20260505181529 | -17 | 0.0 | 0.0 | 0.00 | 0.20 | 0.20 | 1016.0 | ||
| 20260505180044 | -17 | 0.0 | 0.0 | 0.00 | 0.20 | 0.20 | 1016.0 | ||
| 20260505174538 | -17 | 0.0 | 0.0 | 0.00 | 0.20 | 0.20 | 1016.0 | ||
| 20260505173028 | -17 | 0.0 | 0.0 | 0.00 | 0.20 | 0.20 | 1015.8 | ||
| 20260505171533 | -17 | 0.0 | 0.0 | 0.00 | 0.20 | 0.20 | 1015.8 | ||
| 20260505170031 | -17 | 0.0 | 0.0 | 0.00 | 0.20 | 0.20 | 1015.8 | ||
| 20260505164532 | -17 | 0.0 | 0.0 | 0.00 | 0.20 | 0.20 | 1015.7 | ||
| 20260505163028 | -17 | 0.0 | 0.0 | 0.00 | 0.20 | 0.20 | 1015.8 | ||
| 20260505161529 | -17 | 0.0 | 0.0 | 0.00 | 0.20 | 0.20 | 1015.7 | ||
| 20260505153040 | -17 | 0.0 | 0.0 | 0.00 | 0.20 | 0.20 | 1015.5 | ||
| 20260505151533 | -17 | 0.0 | 0.0 | 0.00 | 0.20 | 0.20 | 1015.3 |